Time;durP1;ratioP1;P1;durP2;ratioP2;P2;SDS_P1;SDS_P2;PMS_P1;PMS_P2;Temp;Humidity;BMP_temperature;BMP_pressure;BME280_temperature;BME280_humidity;BME280_pressure;Samples;Min_cycle;Max_cycle;Signal;HPM_P1;HPM_P2
2024/01/11 00:00:22;;;;;;;17.50;11.37;;;-6.10;99.90;;;;;;4945133;28;20202;-53
2024/01/11 00:02:47;;;;;;;17.93;11.67;;;-6.10;99.90;;;;;;4943830;28;20738;-54
2024/01/11 00:05:13;;;;;;;17.33;11.07;;;-6.00;99.90;;;;;;4932170;28;20211;-52
2024/01/11 00:07:38;;;;;;;24.83;13.53;;;-5.90;99.90;;;;;;4932152;28;20237;-53
2024/01/11 00:10:04;;;;;;;24.23;12.90;;;-6.10;99.90;;;;;;4930291;28;20194;-52
2024/01/11 00:12:31;;;;;;;16.83;12.13;;;-6.20;99.90;;;;;;4948074;28;20390;-53
2024/01/11 00:14:58;;;;;;;19.93;13.73;;;-6.40;99.90;;;;;;4932420;28;20229;-51
2024/01/11 00:17:24;;;;;;;17.57;12.33;;;-6.50;99.90;;;;;;4936707;28;20262;-51
2024/01/11 00:19:50;;;;;;;18.13;11.80;;;-6.80;99.90;;;;;;4936822;28;20198;-53
2024/01/11 00:22:16;;;;;;;18.00;11.17;;;-6.70;99.90;;;;;;4926029;28;20284;-53
2024/01/11 00:24:41;;;;;;;20.70;11.97;;;-6.80;99.90;;;;;;4930138;28;20645;-52
2024/01/11 00:27:07;;;;;;;18.73;11.23;;;-6.80;99.90;;;;;;4931372;28;20213;-53
2024/01/11 00:29:34;;;;;;;18.53;11.90;;;-6.70;99.90;;;;;;4929579;28;20193;-52
2024/01/11 00:31:59;;;;;;;19.93;11.33;;;-6.40;99.90;;;;;;4924118;28;20202;-52
2024/01/11 00:34:25;;;;;;;16.13;9.40;;;-6.40;99.90;;;;;;4932580;28;20233;-53
2024/01/11 00:36:50;;;;;;;18.67;11.17;;;-6.70;99.90;;;;;;4935741;28;21084;-52
2024/01/11 00:39:16;;;;;;;14.63;8.77;;;-7.00;99.90;;;;;;4932857;28;20210;-52
2024/01/11 00:41:41;;;;;;;19.60;9.30;;;-7.00;99.90;;;;;;4922234;28;20241;-61
2024/01/11 00:44:07;;;;;;;18.50;9.87;;;-6.80;99.90;;;;;;4922579;28;20214;-57
2024/01/11 00:46:34;;;;;;;15.57;10.40;;;-6.70;99.90;;;;;;4926804;28;20209;-50
2024/01/11 00:48:59;;;;;;;19.87;11.33;;;-6.20;99.90;;;;;;4929893;28;20865;-50
2024/01/11 00:51:25;;;;;;;22.87;11.43;;;-5.70;99.90;;;;;;4926165;28;20677;-50
2024/01/11 00:53:50;;;;;;;21.93;11.50;;;-6.10;99.90;;;;;;4928970;28;20226;-50
2024/01/11 00:56:19;;;;;;;22.57;11.97;;;-6.10;99.90;;;;;;4927080;28;20269;-50
2024/01/11 00:58:45;;;;;;;23.63;12.80;;;-6.20;99.90;;;;;;4932161;28;21049;-50
2024/01/11 01:01:11;;;;;;;14.03;8.33;;;-6.30;99.90;;;;;;4932730;28;20212;-54
2024/01/11 01:03:37;;;;;;;16.63;10.33;;;-6.50;99.90;;;;;;4928171;28;20809;-50
2024/01/11 01:06:03;;;;;;;18.40;11.03;;;-6.60;99.90;;;;;;4925564;28;20210;-51
2024/01/11 01:08:29;;;;;;;16.33;9.07;;;-6.60;99.90;;;;;;4928895;28;20229;-50
2024/01/11 01:10:55;;;;;;;16.73;7.93;;;-6.70;99.90;;;;;;4926278;28;20213;-51
2024/01/11 01:13:20;;;;;;;15.93;9.07;;;-6.80;99.90;;;;;;4934456;28;20756;-50
2024/01/11 01:15:46;;;;;;;15.60;9.57;;;-6.50;99.90;;;;;;4932140;28;20673;-52
2024/01/11 01:18:11;;;;;;;11.07;6.73;;;-6.40;99.90;;;;;;4948921;28;20211;-58
2024/01/11 01:20:37;;;;;;;13.87;8.03;;;-6.50;99.90;;;;;;4932887;28;20203;-52
2024/01/11 01:23:03;;;;;;;15.83;9.60;;;-6.70;99.90;;;;;;4930873;28;20313;-51
2024/01/11 01:25:28;;;;;;;15.80;8.10;;;-6.30;99.90;;;;;;4948586;28;20214;-50
2024/01/11 01:27:55;;;;;;;14.67;8.13;;;-6.40;99.90;;;;;;4935887;28;20229;-51
2024/01/11 01:30:20;;;;;;;16.13;8.83;;;-6.40;99.90;;;;;;4933351;28;20697;-50
2024/01/11 01:32:46;;;;;;;17.23;10.50;;;-6.60;99.90;;;;;;4933895;28;20763;-52
2024/01/11 01:35:11;;;;;;;19.63;11.20;;;-6.70;99.90;;;;;;4939965;28;20207;-51
2024/01/11 01:37:37;;;;;;;19.57;10.13;;;-6.70;99.90;;;;;;4928848;28;20205;-50
2024/01/11 01:40:03;;;;;;;17.53;10.37;;;-6.70;99.90;;;;;;4934137;28;20289;-51
2024/01/11 01:42:28;;;;;;;16.47;11.03;;;-6.70;99.90;;;;;;4928947;28;20222;-51
2024/01/11 01:44:54;;;;;;;19.10;10.67;;;-6.40;99.90;;;;;;4938923;28;20216;-55
2024/01/11 01:47:20;;;;;;;17.87;10.43;;;-6.40;99.90;;;;;;4947004;28;20210;-58
2024/01/11 01:49:48;;;;;;;17.33;9.73;;;-6.40;99.90;;;;;;4934453;28;20255;-59
2024/01/11 01:52:15;;;;;;;15.80;11.27;;;-6.30;99.90;;;;;;4930229;28;20220;-59
2024/01/11 01:54:40;;;;;;;19.27;10.60;;;-6.40;99.90;;;;;;4941643;28;20210;-59
2024/01/11 01:57:09;;;;;;;23.70;10.23;;;-6.40;99.90;;;;;;4940975;28;20667;-60
2024/01/11 01:59:34;;;;;;;15.67;10.87;;;-6.40;99.90;;;;;;4942379;28;20292;-59
2024/01/11 02:02:00;;;;;;;16.40;9.40;;;-6.30;99.90;;;;;;4937813;28;20312;-59
2024/01/11 02:04:26;;;;;;;12.53;8.73;;;-6.20;99.90;;;;;;4933979;28;20375;-59
2024/01/11 02:06:54;;;;;;;15.07;8.93;;;-6.30;99.90;;;;;;4942819;28;20210;-58
2024/01/11 02:09:19;;;;;;;12.53;7.60;;;-6.30;99.90;;;;;;4950328;28;20197;-60
2024/01/11 02:11:45;;;;;;;13.60;8.13;;;-6.40;99.90;;;;;;4945725;28;20264;-58
2024/01/11 02:14:11;;;;;;;13.77;7.30;;;-6.50;99.90;;;;;;4925495;28;20209;-51
2024/01/11 02:16:37;;;;;;;13.00;7.43;;;-6.40;99.90;;;;;;4929789;28;20273;-51
2024/01/11 02:19:06;;;;;;;10.00;6.43;;;-6.50;99.90;;;;;;4932025;28;20218;-51
2024/01/11 02:21:33;;;;;;;14.97;7.63;;;-6.50;99.90;;;;;;4930416;28;20891;-51
2024/01/11 02:24:05;;;;;;;14.57;7.47;;;-6.40;99.90;;;;;;4926441;28;20911;-52
2024/01/11 02:26:31;;;;;;;9.47;6.47;;;-6.50;99.90;;;;;;4940147;28;20699;-51
2024/01/11 02:28:57;;;;;;;11.90;7.20;;;-6.60;99.90;;;;;;4942021;28;20206;-51
2024/01/11 02:31:23;;;;;;;10.73;7.20;;;-6.80;99.90;;;;;;4943951;28;20202;-51
2024/01/11 02:33:49;;;;;;;13.67;7.93;;;-6.70;99.90;;;;;;4942804;28;20223;-51
2024/01/11 02:36:15;;;;;;;11.50;7.30;;;-6.60;99.90;;;;;;4943735;28;20735;-56
2024/01/11 02:38:42;;;;;;;13.13;8.03;;;-6.50;99.90;;;;;;4946024;28;20202;-60
2024/01/11 02:41:07;;;;;;;11.23;7.80;;;-6.30;99.90;;;;;;4933080;28;20209;-60
2024/01/11 02:43:35;;;;;;;18.80;10.43;;;-6.30;99.90;;;;;;4942139;28;20221;-61
2024/01/11 02:46:02;;;;;;;12.27;8.00;;;-6.60;99.90;;;;;;4949485;28;20775;-52
2024/01/11 02:48:28;;;;;;;14.03;7.97;;;-6.80;99.90;;;;;;4932194;28;20978;-55
2024/01/11 02:50:54;;;;;;;18.77;8.97;;;-6.90;99.90;;;;;;4934320;28;20190;-52
2024/01/11 02:53:20;;;;;;;13.17;6.43;;;-6.90;99.90;;;;;;4941309;28;20217;-52
2024/01/11 02:55:45;;;;;;;14.63;8.77;;;-6.70;99.90;;;;;;4931256;28;20189;-52
2024/01/11 02:58:11;;;;;;;17.73;9.57;;;-6.60;99.90;;;;;;4929620;28;20217;-51
2024/01/11 03:00:36;;;;;;;12.27;8.13;;;-6.70;99.90;;;;;;4926683;28;20258;-52
2024/01/11 03:03:02;;;;;;;13.80;7.93;;;-6.80;99.90;;;;;;4939372;28;20250;-51
2024/01/11 03:05:27;;;;;;;13.20;8.03;;;-6.80;99.90;;;;;;4939669;28;21378;-51
2024/01/11 03:07:53;;;;;;;18.40;8.47;;;-6.80;99.90;;;;;;4934338;28;20221;-52
2024/01/11 03:10:18;;;;;;;18.27;8.93;;;-6.70;99.90;;;;;;4941448;28;20206;-51
2024/01/11 03:12:44;;;;;;;18.87;8.07;;;-6.80;99.90;;;;;;4946324;28;20201;-51
2024/01/11 03:15:10;;;;;;;17.40;8.87;;;-6.80;99.90;;;;;;4941804;28;20770;-51
2024/01/11 03:17:35;;;;;;;14.73;9.10;;;-6.80;99.90;;;;;;4943160;28;20233;-51
2024/01/11 03:20:03;;;;;;;15.13;7.93;;;-6.80;99.90;;;;;;4943003;28;20208;-52
2024/01/11 03:22:28;;;;;;;14.03;8.87;;;-6.70;99.90;;;;;;4942652;28;20229;-51
2024/01/11 03:24:54;;;;;;;11.00;8.30;;;-6.70;99.90;;;;;;4943876;28;20259;-50
2024/01/11 03:27:19;;;;;;;15.13;8.37;;;-6.90;99.90;;;;;;4934583;28;20202;-50
2024/01/11 03:29:45;;;;;;;16.70;9.03;;;-6.90;99.90;;;;;;4945875;28;20201;-51
2024/01/11 03:32:13;;;;;;;17.30;8.67;;;-6.80;99.90;;;;;;4939854;28;20640;-51
2024/01/11 03:34:39;;;;;;;14.67;8.40;;;-6.80;99.90;;;;;;4940183;28;20233;-51
2024/01/11 03:37:05;;;;;;;16.77;8.57;;;-6.70;99.90;;;;;;4937846;28;20310;-51
2024/01/11 03:39:30;;;;;;;18.80;9.27;;;-6.50;99.90;;;;;;4933275;28;20238;-51
2024/01/11 03:41:56;;;;;;;13.97;8.60;;;-6.40;99.90;;;;;;4940542;28;20203;-51
2024/01/11 03:44:22;;;;;;;21.13;9.90;;;-6.40;99.90;;;;;;4934970;28;20238;-51
2024/01/11 03:46:48;;;;;;;16.47;9.90;;;-6.30;99.90;;;;;;4937937;28;20207;-51
2024/01/11 03:49:13;;;;;;;21.53;9.20;;;-6.20;99.90;;;;;;4935854;28;20214;-51
2024/01/11 03:51:39;;;;;;;18.47;9.23;;;-6.10;99.90;;;;;;4939864;28;20190;-52
2024/01/11 03:54:05;;;;;;;14.37;8.50;;;-6.00;99.90;;;;;;4962194;23;20634;-50
2024/01/11 03:56:30;;;;;;;12.17;7.43;;;-5.90;99.90;;;;;;4971503;23;20280;-50
2024/01/11 03:58:56;;;;;;;15.60;7.60;;;-5.80;99.90;;;;;;4935580;28;20206;-51
2024/01/11 04:01:22;;;;;;;14.23;8.80;;;-5.80;99.90;;;;;;4932880;28;20229;-52
2024/01/11 04:03:47;;;;;;;14.30;8.87;;;-5.70;99.90;;;;;;4933030;28;20222;-51
2024/01/11 04:06:23;;;;;;;18.60;9.80;;;-5.70;99.90;;;;;;4935807;28;20210;-51
2024/01/11 04:08:49;;;;;;;16.53;9.17;;;-5.70;99.90;;;;;;4937733;28;20193;-51
2024/01/11 04:11:16;;;;;;;17.87;8.37;;;-5.60;99.90;;;;;;4932131;28;20202;-51
2024/01/11 04:13:42;;;;;;;14.63;9.20;;;-5.40;99.90;;;;;;4935797;28;20373;-52
2024/01/11 04:16:07;;;;;;;19.97;9.57;;;-5.40;99.90;;;;;;4936820;28;20281;-51
2024/01/11 04:18:33;;;;;;;17.10;8.50;;;-5.40;99.90;;;;;;4938861;28;20190;-51
2024/01/11 04:20:59;;;;;;;11.97;5.73;;;-5.30;99.90;;;;;;4936495;28;20217;-51
2024/01/11 04:23:24;;;;;;;14.43;8.60;;;-4.80;99.90;;;;;;4934343;28;20638;-51
2024/01/11 04:25:51;;;;;;;22.87;9.17;;;-4.70;99.90;;;;;;4940503;28;20240;-51
2024/01/11 04:28:17;;;;;;;16.63;8.83;;;-5.10;99.90;;;;;;4936896;28;20206;-52
2024/01/11 04:30:42;;;;;;;18.60;9.03;;;-5.30;99.90;;;;;;4937584;28;20575;-51
2024/01/11 04:33:08;;;;;;;18.23;9.33;;;-5.20;99.90;;;;;;4936232;28;20210;-51
2024/01/11 04:35:34;;;;;;;21.73;9.10;;;-5.10;99.90;;;;;;4938965;28;20216;-51
2024/01/11 04:38:00;;;;;;;19.60;9.50;;;-5.20;99.90;;;;;;4934734;28;20194;-51
2024/01/11 04:40:25;;;;;;;22.10;10.53;;;-5.20;99.90;;;;;;4933298;28;20197;-51
2024/01/11 04:42:51;;;;;;;20.40;10.57;;;-5.10;99.90;;;;;;4937329;28;20214;-53
2024/01/11 04:45:16;;;;;;;18.63;9.40;;;-5.00;99.90;;;;;;4937708;28;20728;-52
2024/01/11 04:47:42;;;;;;;18.37;9.90;;;-5.00;99.90;;;;;;4936925;28;20277;-53
2024/01/11 04:50:08;;;;;;;20.87;9.53;;;-4.90;99.90;;;;;;4935485;28;20206;-52
2024/01/11 04:52:33;;;;;;;20.63;10.13;;;-4.80;99.90;;;;;;4935017;28;20202;-53
2024/01/11 04:54:59;;;;;;;18.40;8.27;;;-4.80;99.90;;;;;;4933472;28;20229;-52
2024/01/11 04:57:24;;;;;;;21.97;11.00;;;-4.70;99.90;;;;;;4941321;28;20202;-52
2024/01/11 04:59:50;;;;;;;20.67;10.30;;;-4.70;99.90;;;;;;4934837;28;20213;-51
2024/01/11 05:02:15;;;;;;;19.90;10.40;;;-4.70;99.90;;;;;;4936059;28;20576;-51
2024/01/11 05:04:41;;;;;;;20.00;9.37;;;-4.60;99.90;;;;;;4939628;28;20242;-52
2024/01/11 05:07:06;;;;;;;19.60;10.57;;;-4.60;99.90;;;;;;4941581;28;20210;-51
2024/01/11 05:09:32;;;;;;;22.10;11.37;;;-4.50;99.90;;;;;;4942102;28;21150;-50
2024/01/11 05:11:58;;;;;;;24.07;11.50;;;-4.20;99.90;;;;;;4935540;28;20208;-51
2024/01/11 05:14:23;;;;;;;26.80;11.23;;;-4.30;99.90;;;;;;4939771;28;20210;-51
2024/01/11 05:16:50;;;;;;;24.97;12.17;;;-4.40;99.90;;;;;;4939531;28;20356;-51
2024/01/11 05:19:15;;;;;;;27.37;11.77;;;-4.30;99.90;;;;;;4938657;28;20339;-51
2024/01/11 05:21:41;;;;;;;20.20;11.10;;;-4.30;99.90;;;;;;4939263;28;20234;-51
2024/01/11 05:24:06;;;;;;;23.67;9.80;;;-4.20;99.90;;;;;;4940683;28;20230;-52
2024/01/11 05:26:32;;;;;;;24.27;11.37;;;-4.20;99.90;;;;;;4942755;28;20278;-53
2024/01/11 05:28:58;;;;;;;26.40;11.57;;;-4.20;99.90;;;;;;4935948;28;20210;-52
2024/01/11 05:31:23;;;;;;;29.17;11.77;;;-4.30;99.90;;;;;;4938372;28;20209;-50
2024/01/11 05:33:49;;;;;;;27.40;12.77;;;-4.30;99.90;;;;;;4939828;28;20206;-50
2024/01/11 05:36:14;;;;;;;25.90;10.80;;;-4.20;99.90;;;;;;4938361;28;20806;-64
2024/01/11 05:38:40;;;;;;;21.83;11.07;;;-4.10;99.90;;;;;;4938765;28;20221;-62
2024/01/11 05:41:06;;;;;;;24.13;11.30;;;-4.00;99.90;;;;;;4937387;28;20692;-53
2024/01/11 05:43:31;;;;;;;24.47;11.13;;;-3.90;99.90;;;;;;4935575;29;20711;-62
2024/01/11 05:45:58;;;;;;;23.57;12.07;;;-4.00;99.90;;;;;;4938915;28;20236;-50
2024/01/11 05:48:24;;;;;;;25.80;10.70;;;-4.00;99.90;;;;;;4937328;28;20211;-51
2024/01/11 05:50:50;;;;;;;22.67;11.70;;;-3.90;99.90;;;;;;4936937;28;20589;-53
2024/01/11 05:53:17;;;;;;;26.80;11.80;;;-3.90;99.90;;;;;;4933784;28;20210;-52
2024/01/11 05:55:42;;;;;;;29.27;12.83;;;-3.80;99.90;;;;;;4938374;28;20319;-52
2024/01/11 05:58:07;;;;;;;26.67;12.47;;;-3.90;99.90;;;;;;4941681;28;20238;-51
2024/01/11 06:00:33;;;;;;;26.27;12.00;;;-4.00;99.90;;;;;;4943406;28;20215;-51
2024/01/11 06:02:59;;;;;;;24.27;10.63;;;-3.90;99.90;;;;;;4937936;28;20236;-51
2024/01/11 06:05:25;;;;;;;27.53;12.43;;;-3.90;99.90;;;;;;4932286;28;20685;-51
2024/01/11 06:07:51;;;;;;;32.27;12.27;;;-3.90;99.90;;;;;;4932505;28;20306;-51
2024/01/11 06:10:16;;;;;;;30.70;13.30;;;-3.80;99.90;;;;;;4928109;28;20685;-51
2024/01/11 06:12:42;;;;;;;33.53;14.07;;;-3.70;99.90;;;;;;4931556;28;20207;-52
2024/01/11 06:15:09;;;;;;;31.80;12.60;;;-3.70;99.90;;;;;;4936911;28;20209;-51
2024/01/11 06:17:35;;;;;;;32.57;13.90;;;-3.70;99.90;;;;;;4938597;28;20202;-51
2024/01/11 06:20:00;;;;;;;33.90;14.20;;;-3.70;99.90;;;;;;4939378;28;20222;-52
2024/01/11 06:22:26;;;;;;;29.00;13.83;;;-3.70;99.90;;;;;;4939731;28;21129;-52
2024/01/11 06:24:51;;;;;;;29.53;13.73;;;-3.80;99.90;;;;;;4939078;28;20214;-52
2024/01/11 06:27:17;;;;;;;27.83;13.80;;;-3.70;99.90;;;;;;4941903;28;20206;-51
2024/01/11 06:29:42;;;;;;;31.80;13.57;;;-3.60;99.90;;;;;;4943467;28;20253;-51
2024/01/11 06:32:08;;;;;;;30.03;13.87;;;-3.60;99.90;;;;;;4940947;28;20267;-52
2024/01/11 06:34:35;;;;;;;32.37;14.37;;;-3.60;99.90;;;;;;4940607;28;20206;-51
2024/01/11 06:37:02;;;;;;;35.77;13.10;;;-3.60;99.90;;;;;;4939601;28;20325;-52
2024/01/11 06:39:28;;;;;;;43.00;15.50;;;-3.50;99.90;;;;;;4940678;28;20213;-51
2024/01/11 06:41:53;;;;;;;39.57;14.97;;;-3.50;99.90;;;;;;4941930;28;20272;-51
2024/01/11 06:44:19;;;;;;;47.00;15.93;;;-3.50;99.90;;;;;;4940654;28;20221;-51
2024/01/11 06:46:45;;;;;;;38.00;15.50;;;-3.50;99.90;;;;;;4940993;28;20708;-51
2024/01/11 06:49:11;;;;;;;37.07;15.67;;;-3.50;99.90;;;;;;4939728;28;20791;-51
2024/01/11 06:51:37;;;;;;;42.13;15.00;;;-3.50;99.90;;;;;;4934214;28;20202;-51
2024/01/11 06:54:02;;;;;;;45.67;15.87;;;-3.40;99.90;;;;;;4937888;28;20683;-51
2024/01/11 06:56:28;;;;;;;34.27;14.87;;;-3.40;99.90;;;;;;4944029;28;20247;-51
2024/01/11 06:58:54;;;;;;;41.43;15.73;;;-3.40;99.90;;;;;;4943607;28;20247;-52
2024/01/11 07:01:21;;;;;;;33.83;16.80;;;-3.30;99.90;;;;;;4934883;28;20708;-52
2024/01/11 07:03:46;;;;;;;40.27;16.77;;;-3.20;99.90;;;;;;4940268;28;20218;-52
2024/01/11 07:06:12;;;;;;;45.33;15.73;;;-3.20;99.90;;;;;;4944518;28;20778;-52
2024/01/11 07:08:37;;;;;;;40.47;16.00;;;-3.10;99.90;;;;;;4938254;28;20204;-52
2024/01/11 07:11:03;;;;;;;36.43;15.70;;;-3.00;99.90;;;;;;4942410;28;20223;-52
2024/01/11 07:13:29;;;;;;;38.10;17.30;;;-3.00;99.90;;;;;;4937404;28;20976;-52
2024/01/11 07:15:57;;;;;;;42.47;17.27;;;-3.10;99.90;;;;;;4933771;28;20309;-52
2024/01/11 07:18:22;;;;;;;45.43;14.90;;;-3.20;99.90;;;;;;4944216;28;20240;-52
2024/01/11 07:20:48;;;;;;;39.43;17.70;;;-3.20;99.90;;;;;;4940251;28;20223;-53
2024/01/11 07:23:14;;;;;;;36.00;15.13;;;-3.20;99.90;;;;;;4945462;28;20209;-53
2024/01/11 07:25:40;;;;;;;44.80;18.23;;;-3.20;99.90;;;;;;4940338;28;20230;-52
2024/01/11 07:28:06;;;;;;;40.27;15.93;;;-3.10;99.90;;;;;;4942374;28;20198;-52
2024/01/11 07:30:32;;;;;;;35.87;16.03;;;-3.00;99.90;;;;;;4936885;28;20203;-52
2024/01/11 07:32:58;;;;;;;42.80;15.97;;;-3.20;99.90;;;;;;4938827;28;20203;-52
2024/01/11 07:35:23;;;;;;;39.23;17.20;;;-3.10;99.90;;;;;;4939239;28;20730;-51
2024/01/11 07:37:49;;;;;;;40.87;17.27;;;-3.10;99.90;;;;;;4942285;28;20199;-52
2024/01/11 07:40:16;;;;;;;41.33;18.00;;;-3.10;99.90;;;;;;4945773;28;20199;-51
2024/01/11 07:42:42;;;;;;;40.93;18.73;;;-3.20;99.90;;;;;;4943207;28;20590;-52
2024/01/11 07:45:11;;;;;;;39.63;18.43;;;-3.10;99.90;;;;;;4940429;28;20206;-57
2024/01/11 07:47:37;;;;;;;41.40;17.00;;;-3.00;99.90;;;;;;4939358;28;20725;-52
2024/01/11 07:50:06;;;;;;;37.87;17.77;;;-2.80;99.90;;;;;;4934124;28;20215;-52
2024/01/11 07:52:32;;;;;;;39.97;16.60;;;-2.80;99.90;;;;;;4943910;28;20214;-53
2024/01/11 07:55:00;;;;;;;43.33;18.03;;;-2.90;99.90;;;;;;4938019;28;20238;-53
2024/01/11 07:57:25;;;;;;;41.40;18.17;;;-2.80;99.90;;;;;;4939786;28;20193;-52
2024/01/11 07:59:51;;;;;;;42.30;18.20;;;-3.00;99.90;;;;;;4939269;28;20206;-51
2024/01/11 08:02:16;;;;;;;35.07;16.77;;;-3.00;99.90;;;;;;4941246;28;20262;-52
2024/01/11 08:04:42;;;;;;;38.37;16.80;;;-3.10;99.90;;;;;;4938853;28;20206;-61
2024/01/11 08:07:07;;;;;;;46.87;18.10;;;-3.10;99.90;;;;;;4941768;28;20214;-60
2024/01/11 08:09:45;;;;;;;44.83;19.03;;;-3.00;99.90;;;;;;4941769;28;20211;-52
2024/01/11 08:12:13;;;;;;;37.40;18.60;;;-3.10;99.90;;;;;;4939260;28;20214;-52
2024/01/11 08:14:38;;;;;;;40.67;16.93;;;-3.00;99.90;;;;;;4932491;28;20214;-57
2024/01/11 08:17:04;;;;;;;39.20;16.03;;;-2.60;99.90;;;;;;4928050;28;20206;-52
2024/01/11 08:19:30;;;;;;;36.33;17.83;;;-2.70;99.90;;;;;;4937082;28;20667;-51
2024/01/11 08:21:56;;;;;;;50.47;20.10;;;-2.80;99.90;;;;;;4938066;28;20206;-53
2024/01/11 08:24:22;;;;;;;43.53;16.87;;;-2.80;99.90;;;;;;4932320;28;20679;-52
2024/01/11 08:26:47;;;;;;;38.70;16.73;;;-2.70;99.90;;;;;;4935440;28;20203;-52
2024/01/11 08:29:18;;;;;;;40.07;19.73;;;-2.80;99.90;;;;;;4932996;28;20207;-53
2024/01/11 08:31:44;;;;;;;37.57;17.77;;;-2.70;99.90;;;;;;4934869;28;20227;-52
2024/01/11 08:34:10;;;;;;;38.53;17.87;;;-2.90;99.90;;;;;;4935428;28;20294;-52
2024/01/11 08:36:36;;;;;;;43.27;18.17;;;-2.90;99.90;;;;;;4933736;28;20202;-52
2024/01/11 08:39:08;;;;;;;39.27;18.03;;;-2.80;99.90;;;;;;4941269;28;20301;-52
2024/01/11 08:41:40;;;;;;;43.40;19.43;;;-2.60;99.90;;;;;;4938141;28;20207;-54
2024/01/11 08:44:06;;;;;;;33.47;16.60;;;-2.70;99.90;;;;;;4936423;28;20209;-52
2024/01/11 08:46:33;;;;;;;43.73;18.93;;;-2.90;99.90;;;;;;4941283;28;20689;-52
2024/01/11 08:48:59;;;;;;;38.23;19.23;;;-2.70;99.90;;;;;;4940041;28;20202;-52
2024/01/11 08:51:25;;;;;;;49.43;21.00;;;-2.70;99.90;;;;;;4931978;28;20672;-51
2024/01/11 08:53:52;;;;;;;43.90;18.57;;;-2.50;99.90;;;;;;4934334;28;20256;-52
2024/01/11 08:56:18;;;;;;;41.87;18.90;;;-2.70;99.90;;;;;;4933915;28;20218;-52
2024/01/11 08:58:43;;;;;;;43.63;21.07;;;-2.80;99.90;;;;;;4936654;28;20222;-52
2024/01/11 09:01:10;;;;;;;46.80;19.50;;;-2.40;99.90;;;;;;4936661;28;20836;-52
2024/01/11 09:03:35;;;;;;;39.87;18.37;;;-2.50;99.90;;;;;;4937194;28;20252;-53
2024/01/11 09:06:02;;;;;;;46.57;20.37;;;-2.80;99.90;;;;;;4936854;28;20303;-52
2024/01/11 09:08:29;;;;;;;40.13;20.93;;;-2.60;99.90;;;;;;4939857;28;20303;-52
2024/01/11 09:10:57;;;;;;;38.73;16.83;;;-2.60;99.90;;;;;;4939784;28;20207;-52
2024/01/11 09:13:23;;;;;;;35.00;17.90;;;-2.50;99.90;;;;;;4947615;28;20786;-52
2024/01/11 09:15:48;;;;;;;41.27;17.70;;;-2.30;99.90;;;;;;4942229;28;20220;-54
2024/01/11 09:18:15;;;;;;;45.13;20.33;;;-2.50;99.90;;;;;;4937740;28;20206;-60
2024/01/11 09:20:41;;;;;;;44.43;19.40;;;-2.50;99.90;;;;;;4941356;28;20198;-59
2024/01/11 09:23:07;;;;;;;39.30;19.50;;;-2.30;99.90;;;;;;4938223;28;20574;-60
2024/01/11 09:25:33;;;;;;;39.47;19.07;;;-2.30;99.90;;;;;;4937422;28;20281;-53
2024/01/11 09:27:59;;;;;;;39.30;19.63;;;-2.50;99.90;;;;;;4935194;28;20255;-53
2024/01/11 09:30:24;;;;;;;38.77;18.20;;;-2.40;99.90;;;;;;4936120;28;20640;-60
2024/01/11 09:32:50;;;;;;;46.63;18.83;;;-2.40;99.90;;;;;;4936092;28;20204;-54
2024/01/11 09:35:16;;;;;;;43.17;19.13;;;-2.40;99.90;;;;;;4930080;28;20208;-54
2024/01/11 09:37:42;;;;;;;42.63;18.60;;;-2.20;99.90;;;;;;4936258;28;20212;-54
2024/01/11 09:40:10;;;;;;;37.13;18.03;;;-2.20;99.90;;;;;;4936897;28;20259;-54
2024/01/11 09:42:39;;;;;;;44.27;19.37;;;-2.30;99.90;;;;;;4935244;28;20207;-51
2024/01/11 09:45:15;;;;;;;37.47;18.37;;;-2.40;99.90;;;;;;4935213;28;20202;-51
2024/01/11 09:47:41;;;;;;;49.10;19.30;;;-2.50;99.90;;;;;;4936342;28;20569;-52
2024/01/11 09:50:07;;;;;;;53.93;23.30;;;-2.50;99.90;;;;;;4932970;28;20643;-52
2024/01/11 09:52:33;;;;;;;42.60;18.03;;;-2.50;99.90;;;;;;4938717;28;20221;-54
2024/01/11 09:55:00;;;;;;;49.20;21.97;;;-2.50;99.90;;;;;;4933666;28;20233;-61
2024/01/11 09:57:29;;;;;;;40.73;20.03;;;-2.50;99.90;;;;;;4936097;28;20194;-53
2024/01/11 09:59:57;;;;;;;46.30;20.17;;;-2.40;99.90;;;;;;4938346;28;20542;-53
2024/01/11 10:02:24;;;;;;;46.70;22.03;;;-2.50;99.90;;;;;;4937566;28;20590;-53
2024/01/11 10:04:52;;;;;;;46.63;20.10;;;-2.50;99.90;;;;;;4932493;28;20230;-53
2024/01/11 10:07:21;;;;;;;44.80;18.97;;;-2.40;99.90;;;;;;4934462;28;20304;-52
2024/01/11 10:09:47;;;;;;;43.03;18.80;;;-2.40;99.90;;;;;;4935566;28;20853;-59
2024/01/11 10:12:13;;;;;;;46.33;21.40;;;-2.50;99.90;;;;;;4941033;28;20467;-52
2024/01/11 10:14:38;;;;;;;48.83;21.27;;;-2.50;99.90;;;;;;4943794;28;20727;-63
2024/01/11 10:17:05;;;;;;;42.60;21.77;;;-2.50;99.90;;;;;;4927439;28;20217;-52
2024/01/11 10:19:30;;;;;;;52.87;24.13;;;-2.50;99.90;;;;;;4930263;28;20202;-52
2024/01/11 10:22:00;;;;;;;53.30;21.73;;;-2.40;99.90;;;;;;4937385;28;20213;-53
2024/01/11 10:24:26;;;;;;;48.90;22.77;;;-2.30;99.90;;;;;;4935715;28;20269;-52
2024/01/11 10:26:55;;;;;;;51.57;22.63;;;-2.20;99.90;;;;;;4945703;28;20237;-52
2024/01/11 10:29:20;;;;;;;46.47;20.60;;;-2.10;99.90;;;;;;4944183;28;20293;-62
2024/01/11 10:31:46;;;;;;;45.83;21.67;;;-2.10;99.90;;;;;;4938994;28;20632;-51
2024/01/11 10:34:11;;;;;;;44.33;20.73;;;-1.80;99.90;;;;;;4943994;28;20220;-52
2024/01/11 10:36:37;;;;;;;49.00;20.90;;;-1.50;99.90;;;;;;4941995;28;20291;-51
2024/01/11 10:39:04;;;;;;;36.17;18.83;;;-1.50;99.90;;;;;;4942298;28;20205;-52
2024/01/11 10:41:35;;;;;;;41.30;19.30;;;-1.60;99.90;;;;;;4938639;28;20214;-52
2024/01/11 10:44:01;;;;;;;42.07;19.60;;;-1.50;99.90;;;;;;4935018;28;20318;-52
2024/01/11 10:46:28;;;;;;;38.13;18.80;;;-1.70;99.90;;;;;;4937342;28;20871;-57
2024/01/11 10:48:58;;;;;;;39.53;18.90;;;-2.10;99.90;;;;;;4933975;28;20207;-51
2024/01/11 10:51:28;;;;;;;43.83;20.33;;;-2.20;99.90;;;;;;4934856;28;20212;-53
2024/01/11 10:53:54;;;;;;;41.80;20.07;;;-2.10;99.90;;;;;;4935562;28;20246;-52
2024/01/11 10:56:21;;;;;;;37.47;19.53;;;-2.10;99.90;;;;;;4936693;28;20864;-53
2024/01/11 10:58:47;;;;;;;39.30;19.67;;;-2.10;99.90;;;;;;4937203;28;20657;-51
2024/01/11 11:01:13;;;;;;;43.60;20.03;;;-2.10;99.90;;;;;;4935036;28;20211;-52
2024/01/11 11:03:42;;;;;;;45.00;21.17;;;-2.00;99.90;;;;;;4936522;28;20694;-51
2024/01/11 11:06:09;;;;;;;46.77;20.43;;;-2.00;99.90;;;;;;4930062;28;20214;-51
2024/01/11 11:08:36;;;;;;;38.33;18.20;;;-2.00;99.90;;;;;;4934875;28;20223;-51
2024/01/11 11:11:07;;;;;;;39.13;19.03;;;-1.90;99.90;;;;;;4934136;28;20711;-51
2024/01/11 11:13:34;;;;;;;39.00;17.87;;;-1.90;99.90;;;;;;4935653;28;20707;-51
2024/01/11 11:16:02;;;;;;;37.47;18.30;;;-1.90;99.90;;;;;;4934260;28;20543;-55
2024/01/11 11:18:27;;;;;;;37.43;18.20;;;-1.80;99.90;;;;;;4932766;28;20220;-51
2024/01/11 11:20:54;;;;;;;38.50;18.17;;;-1.80;99.90;;;;;;4934203;28;20211;-65
2024/01/11 11:23:19;;;;;;;38.33;18.70;;;-1.70;99.90;;;;;;4934980;28;20305;-52
2024/01/11 11:25:46;;;;;;;33.67;17.77;;;-1.70;99.90;;;;;;4933208;28;20210;-52
2024/01/11 11:28:13;;;;;;;35.03;17.93;;;-1.70;99.90;;;;;;4932830;28;20211;-52
2024/01/11 11:30:43;;;;;;;30.37;15.97;;;-1.70;99.90;;;;;;4930024;28;20572;-52
2024/01/11 11:33:23;;;;;;;33.27;17.73;;;-1.70;99.90;;;;;;4934063;28;20214;-52
2024/01/11 11:35:53;;;;;;;33.63;17.90;;;-1.60;99.90;;;;;;4934714;28;20203;-52
2024/01/11 11:38:30;;;;;;;29.17;16.97;;;-1.70;99.90;;;;;;4934476;28;20206;-53
2024/01/11 11:40:57;;;;;;;35.20;19.10;;;-1.60;99.90;;;;;;4935706;28;20657;-52
2024/01/11 11:43:23;;;;;;;38.23;18.27;;;-1.50;99.90;;;;;;4933023;28;20219;-54
2024/01/11 11:45:51;;;;;;;33.00;17.60;;;-1.50;99.90;;;;;;4932528;28;20216;-52
2024/01/11 11:48:29;;;;;;;34.93;18.80;;;-1.50;99.90;;;;;;4933835;28;20535;-52
2024/01/11 11:51:11;;;;;;;33.53;17.67;;;-1.60;99.90;;;;;;4931481;28;20633;-53
2024/01/11 11:53:38;;;;;;;45.97;21.80;;;-1.50;99.90;;;;;;4937482;28;20525;-53
2024/01/11 11:56:04;;;;;;;38.33;20.27;;;-1.50;99.90;;;;;;4941491;28;20212;-52
2024/01/11 11:58:31;;;;;;;37.60;18.87;;;-1.50;99.90;;;;;;4938261;28;20575;-53
2024/01/11 12:00:58;;;;;;;39.13;19.73;;;-1.50;99.90;;;;;;4940459;28;21033;-59
2024/01/11 12:03:32;;;;;;;40.80;22.20;;;-1.40;99.90;;;;;;4934511;28;20211;-52
2024/01/11 12:05:58;;;;;;;35.30;19.43;;;-1.40;99.90;;;;;;4930459;28;20230;-52
2024/01/11 12:08:24;;;;;;;35.03;20.87;;;-1.40;99.90;;;;;;4933697;28;20952;-53
2024/01/11 12:10:51;;;;;;;39.50;21.97;;;-1.40;99.90;;;;;;4935138;28;20235;-52
2024/01/11 12:13:17;;;;;;;38.83;18.90;;;-1.40;99.90;;;;;;4935476;28;21075;-52
2024/01/11 12:15:43;;;;;;;33.83;20.40;;;-1.30;99.90;;;;;;4934429;28;20257;-52
2024/01/11 12:18:08;;;;;;;43.17;21.17;;;-1.30;99.90;;;;;;4933363;28;20635;-51
2024/01/11 12:20:34;;;;;;;33.97;18.77;;;-1.30;99.90;;;;;;4934200;28;20206;-52
2024/01/11 12:22:59;;;;;;;41.30;21.80;;;-1.20;99.90;;;;;;4936048;28;20229;-52
2024/01/11 12:25:26;;;;;;;39.03;20.47;;;-1.30;99.90;;;;;;4935855;28;20314;-50